createdAt,value
2023-04-16T00:04:32.396Z,14.35
2023-04-16T00:09:34.683Z,13.25
2023-04-16T00:14:36.827Z,13.93
2023-04-16T00:19:38.971Z,13.90
2023-04-16T00:24:41.600Z,14.25
2023-04-16T00:29:43.703Z,14.50
2023-04-16T00:34:46.046Z,14.43
2023-04-16T00:39:48.225Z,13.40
2023-04-16T00:44:50.392Z,14.37
2023-04-16T00:49:52.772Z,13.98
2023-04-16T00:54:54.978Z,13.62
2023-04-16T00:59:58.240Z,14.15
2023-04-16T01:05:01.461Z,13.93
2023-04-16T01:10:04.205Z,14.47
2023-04-16T01:15:07.096Z,13.55
2023-04-16T01:20:09.609Z,14.32
2023-04-16T01:25:15.807Z,13.35
2023-04-16T01:30:18.101Z,12.52
2023-04-16T01:35:20.266Z,13.03
2023-04-16T01:40:22.683Z,12.35
2023-04-16T01:45:25.546Z,12.82
2023-04-16T01:50:28.469Z,11.45
2023-04-16T01:55:32.374Z,11.82
2023-04-16T02:00:34.616Z,12.00
2023-04-16T02:05:36.792Z,11.18
2023-04-16T02:10:39.102Z,11.18
2023-04-16T02:15:49.215Z,11.57
2023-04-16T02:20:51.350Z,11.15
2023-04-16T02:25:53.617Z,10.90
2023-04-16T02:30:55.938Z,10.98
2023-04-16T02:36:00.494Z,10.93
2023-04-16T02:41:02.955Z,9.93
2023-04-16T02:46:05.406Z,10.63
2023-04-16T02:51:07.789Z,10.27
2023-04-16T02:56:09.965Z,10.57
2023-04-16T03:01:12.179Z,11.80
2023-04-16T03:06:14.420Z,11.75
2023-04-16T03:11:16.877Z,13.00
2023-04-16T03:16:19.250Z,12.13
2023-04-16T03:21:21.497Z,13.15
2023-04-16T03:26:23.735Z,12.27
2023-04-16T03:31:26.138Z,13.25
2023-04-16T03:36:28.273Z,13.23
2023-04-16T03:41:31.070Z,13.17
2023-04-16T03:46:33.280Z,12.43
2023-04-16T03:51:35.558Z,11.77
2023-04-16T03:56:37.726Z,11.30
2023-04-16T04:01:39.909Z,10.77
2023-04-16T04:06:42.222Z,10.20
2023-04-16T04:11:44.582Z,10.55
2023-04-16T04:16:46.973Z,10.07
2023-04-16T04:21:49.190Z,10.15
2023-04-16T04:26:51.370Z,10.75
2023-04-16T04:31:55.266Z,11.13
2023-04-16T04:36:57.658Z,10.55
2023-04-16T04:41:59.891Z,10.25
2023-04-16T04:47:03.168Z,9.95
2023-04-16T04:52:06.179Z,10.40
2023-04-16T04:57:08.822Z,9.20
2023-04-16T05:02:12.275Z,9.52
2023-04-16T05:07:14.496Z,10.23
2023-04-16T05:12:16.692Z,9.10
2023-04-16T05:17:19.347Z,9.68
2023-04-16T05:22:21.662Z,9.10
2023-04-16T05:27:23.873Z,8.05
2023-04-16T05:32:26.464Z,8.00
2023-04-16T05:37:28.744Z,7.85
2023-04-16T05:42:31.143Z,8.02
2023-04-16T05:47:33.326Z,8.03
2023-04-16T05:52:35.622Z,7.45
2023-04-16T05:57:37.786Z,7.22
2023-04-16T06:02:40.435Z,7.53
2023-04-16T06:07:42.708Z,10.57
2023-04-16T06:12:47.358Z,8.07
2023-04-16T06:17:50.075Z,10.00
2023-04-16T06:22:52.323Z,8.48
2023-04-16T06:27:54.865Z,7.43
2023-04-16T06:32:57.040Z,8.15
2023-04-16T06:37:59.220Z,7.20
2023-04-16T06:43:06.732Z,7.10
2023-04-16T06:48:09.011Z,6.90
2023-04-16T06:53:11.188Z,7.30
2023-04-16T06:58:13.371Z,7.03
2023-04-16T07:03:15.906Z,6.03
2023-04-16T07:08:18.249Z,6.15
2023-04-16T07:13:20.894Z,6.70
2023-04-16T07:18:23.121Z,5.65
2023-04-16T07:23:28.078Z,5.78
2023-04-16T07:28:30.457Z,5.70
2023-04-16T07:33:33.029Z,5.68
2023-04-16T07:38:37.441Z,4.53
2023-04-16T07:43:39.711Z,4.97
2023-04-16T07:48:42.713Z,5.05
2023-04-16T07:53:47.971Z,4.43
2023-04-16T07:58:50.166Z,4.60
2023-04-16T08:03:52.458Z,4.40
2023-04-16T08:08:54.740Z,4.37
2023-04-16T08:13:57.075Z,3.85
2023-04-16T08:19:21.668Z,4.13
2023-04-16T08:24:23.858Z,4.30
2023-04-16T08:29:26.485Z,4.10
2023-04-16T08:34:29.011Z,4.03
2023-04-16T08:39:33.797Z,4.15
2023-04-16T08:44:44.293Z,4.47
2023-04-16T08:49:59.814Z,4.32
2023-04-16T08:55:12.619Z,4.40
2023-04-16T09:00:16.687Z,4.60
2023-04-16T09:05:20.810Z,4.85
2023-04-16T09:10:24.786Z,4.30
2023-04-16T09:15:26.950Z,4.55
2023-04-16T09:20:29.206Z,4.82
2023-04-16T09:25:35.089Z,4.70
2023-04-16T09:30:37.668Z,4.87
2023-04-16T09:35:46.693Z,4.57
2023-04-16T09:41:07.237Z,4.55
2023-04-16T09:46:12.886Z,4.57
2023-04-16T09:51:15.101Z,4.40
2023-04-16T09:56:17.352Z,4.22
2023-04-16T10:01:19.862Z,4.33
2023-04-16T10:06:25.712Z,4.22
2023-04-16T10:11:28.371Z,4.28
2023-04-16T10:16:31.212Z,3.97
2023-04-16T10:21:34.462Z,4.30
2023-04-16T10:26:37.214Z,4.10
2023-04-16T10:31:40.838Z,4.47
2023-04-16T10:36:43.462Z,3.95
2023-04-16T10:41:46.149Z,4.30
2023-04-16T10:46:51.507Z,3.92
2023-04-16T10:52:01.693Z,4.70
2023-04-16T10:57:06.393Z,4.18
2023-04-16T11:02:13.810Z,4.32
2023-04-16T11:07:19.058Z,4.40
2023-04-16T11:12:24.089Z,4.30
2023-04-16T11:17:30.896Z,4.67
2023-04-16T11:22:36.661Z,4.60
2023-04-16T11:27:39.037Z,4.97
2023-04-16T11:32:41.513Z,4.50
2023-04-16T11:37:44.555Z,4.10
2023-04-16T11:42:46.743Z,4.03
2023-04-16T11:47:55.464Z,3.58
2023-04-16T11:53:04.432Z,3.90
2023-04-16T11:58:16.495Z,3.80
2023-04-16T12:03:19.638Z,4.07
2023-04-16T12:08:31.796Z,3.87
2023-04-16T12:13:40.015Z,4.25
2023-04-16T12:19:03.892Z,3.60
2023-04-16T12:24:07.522Z,3.73
2023-04-16T12:29:19.698Z,3.58
2023-04-16T12:34:22.495Z,3.70
2023-04-16T12:39:45.511Z,3.62
2023-04-16T12:44:49.112Z,3.60
2023-04-16T12:49:51.257Z,3.80
2023-04-16T12:54:53.536Z,3.30
2023-04-16T12:59:58.139Z,3.33
2023-04-16T13:05:00.307Z,3.40
2023-04-16T13:10:02.875Z,3.65
2023-04-16T13:15:05.445Z,3.40
2023-04-16T13:20:08.002Z,3.30
2023-04-16T13:25:10.265Z,3.00
2023-04-16T13:30:12.838Z,2.85
2023-04-16T13:35:15.133Z,2.50
2023-04-16T13:40:17.287Z,3.00
2023-04-16T13:45:20.706Z,2.45
2023-04-16T13:50:23.381Z,2.70
2023-04-16T13:55:26.015Z,2.50
2023-04-16T14:00:28.277Z,2.53
2023-04-16T14:05:30.562Z,2.60
2023-04-16T14:10:33.221Z,2.60
2023-04-16T14:15:35.420Z,2.40
2023-04-16T14:20:39.915Z,2.90
2023-04-16T14:25:42.169Z,2.30
2023-04-16T14:30:44.384Z,2.40
2023-04-16T14:35:46.664Z,2.03
2023-04-16T14:40:49.127Z,2.03
2023-04-16T14:45:51.323Z,1.80
2023-04-16T14:50:53.813Z,1.95
2023-04-16T14:55:59.036Z,2.00
2023-04-16T15:01:01.354Z,2.10
2023-04-16T15:06:03.679Z,2.13
2023-04-16T15:11:06.061Z,1.90
2023-04-16T15:16:08.218Z,1.70
2023-04-16T15:21:12.723Z,2.10
2023-04-16T15:26:15.340Z,1.48
2023-04-16T15:31:17.847Z,2.00
2023-04-16T15:36:20.888Z,1.92
2023-04-16T15:41:23.277Z,2.10
2023-04-16T15:46:25.820Z,2.00
2023-04-16T15:51:29.471Z,2.17
2023-04-16T15:56:31.979Z,2.03
2023-04-16T16:01:34.292Z,2.30
2023-04-16T16:06:38.704Z,1.87
2023-04-16T16:11:41.719Z,1.80
2023-04-16T16:16:46.431Z,2.08
2023-04-16T16:21:48.619Z,2.00
2023-04-16T16:26:50.971Z,2.00
2023-04-16T16:31:53.220Z,2.00
2023-04-16T16:36:55.525Z,2.40
2023-04-16T16:41:58.220Z,2.08
2023-04-16T16:47:00.527Z,2.30
2023-04-16T16:52:02.895Z,1.80
2023-04-16T16:57:05.150Z,2.03
2023-04-16T17:02:07.585Z,2.00
2023-04-16T17:07:09.937Z,2.40
2023-04-16T17:12:12.105Z,2.10
2023-04-16T17:17:14.270Z,2.10
2023-04-16T17:22:16.430Z,2.20
2023-04-16T17:27:18.635Z,2.43
2023-04-16T17:32:21.133Z,2.47
2023-04-16T17:37:23.628Z,2.13
2023-04-16T17:42:25.889Z,2.30
2023-04-16T17:47:28.224Z,2.80
2023-04-16T17:52:30.639Z,2.40
2023-04-16T17:57:32.825Z,2.80
2023-04-16T18:02:35.427Z,3.10
2023-04-16T18:07:39.063Z,2.92
2023-04-16T18:12:41.287Z,3.35
2023-04-16T18:17:43.533Z,3.50
2023-04-16T18:22:46.233Z,3.62
2023-04-16T18:27:49.675Z,3.50
2023-04-16T18:33:16.425Z,3.53
2023-04-16T18:38:13.959Z,4.05
2023-04-16T18:43:16.244Z,3.75
2023-04-16T18:48:18.428Z,4.10
2023-04-16T18:53:21.340Z,3.60
2023-04-16T18:58:24.068Z,3.42
2023-04-16T19:03:28.490Z,4.12
2023-04-16T19:08:30.856Z,4.15
2023-04-16T19:13:33.205Z,4.00
2023-04-16T19:18:35.585Z,3.93
2023-04-16T19:23:37.982Z,4.20
2023-04-16T19:28:40.312Z,3.85
2023-04-16T19:33:42.425Z,3.83
2023-04-16T19:38:44.565Z,3.65
2023-04-16T19:43:46.718Z,3.53
2023-04-16T19:48:48.883Z,3.25
2023-04-16T19:53:51.846Z,3.53
2023-04-16T19:58:55.544Z,3.45
2023-04-16T20:03:57.809Z,3.50
2023-04-16T20:09:00.141Z,3.40
2023-04-16T20:14:02.342Z,6.05
2023-04-16T20:19:07.150Z,3.12
2023-04-16T20:24:10.852Z,3.83
2023-04-16T20:29:13.085Z,3.20
2023-04-16T20:34:15.390Z,3.20
2023-04-16T20:39:20.417Z,3.37
2023-04-16T20:44:40.347Z,3.10
2023-04-16T20:49:49.432Z,3.30
2023-04-16T20:54:52.424Z,3.60
2023-04-16T20:59:54.699Z,2.87
2023-04-16T21:04:56.953Z,3.08
2023-04-16T21:10:00.672Z,3.15
2023-04-16T21:15:04.210Z,3.03
2023-04-16T21:20:10.635Z,2.83
2023-04-16T21:25:12.832Z,3.20
2023-04-16T21:30:15.388Z,3.20
2023-04-16T21:35:17.647Z,2.80
2023-04-16T21:40:19.817Z,3.28
2023-04-16T21:45:21.978Z,3.28
2023-04-16T21:50:24.236Z,3.00
2023-04-16T21:55:26.408Z,2.78
2023-04-16T22:00:28.692Z,2.92
2023-04-16T22:05:31.820Z,2.90
2023-04-16T22:10:34.148Z,2.90
2023-04-16T22:15:36.336Z,2.67
2023-04-16T22:20:39.346Z,2.90
2023-04-16T22:25:41.813Z,2.60
2023-04-16T22:30:44.083Z,2.50
2023-04-16T22:35:46.430Z,2.20
2023-04-16T22:40:49.034Z,3.00
2023-04-16T22:46:01.157Z,2.65
2023-04-16T22:51:04.452Z,2.20
2023-04-16T22:56:06.998Z,2.60
2023-04-16T23:01:09.215Z,2.70
2023-04-16T23:06:11.972Z,2.50
2023-04-16T23:11:14.163Z,2.70
2023-04-16T23:16:16.389Z,3.22
2023-04-16T23:21:18.761Z,2.72
2023-04-16T23:26:20.917Z,2.40
2023-04-16T23:31:23.147Z,2.23
2023-04-16T23:36:26.421Z,2.50
2023-04-16T23:41:28.671Z,2.67
2023-04-16T23:46:31.050Z,2.40
2023-04-16T23:51:33.311Z,2.50
2023-04-16T23:56:35.643Z,2.70
